International Virtual Aviation Organisation

Russian Federation and Kazakhstan MCD

 

Карточка аэропорта UIAA

Внимание!
Информация на этой странице в стадии наполнения.
Если вы не увидели какой-то информации, или заметили неточность - пожалуйста сообщите нам!
Спасибо!
Команда RU-STAFF
Название аэропортаКадала
Название аэропорта (англ.)Kadala
Превышение2272 ft. (692.5 m.)
Координаты52°1.5779999999999', 113°18.3'
Высота перехода1850m
Эшелон переходаFL100
Коды ответчика3350-3377
Зона ОрВДИркутск РПИ (UIII)
Данные METARUIAA 180630Z 27004MPS 9999 NSC M09/M17 Q1018 R29/410160 NOSIG RMK QFE705/0940
Проноз погоды (TAF)UIAA 180500Z 1806/1906 29003G08MPS 9999 NSC TEMPO 1810/1902 3100 BR FU
NOTAMshow/hide NOTAM
AWOS   TABLE

Информация о ВПП


Диспетчерские позиции

Позывной Наименование органа УВД Частота
UIAA_APPЧита-Подход122.0
UIAA_TWRЧита-Вышка118.1



Спутниковое изображение